• Join FlightAware (Why Join?)
  • Login
  • US Flag 
07:47AM EDT


 

Airport Tracker/Info


-or-


 

Live Flight TrackerFlight Track Log ✈ JIA2335 ✈ 05-Jul-2013 ✈ KPHL - KDAY

Flight Track Log - Related Links

Times and Time Zones

All times are in EDT time to prevent confusion due to time zone crossing. See the JIA2335 flight status page for this flight to view local times or setup timezone preferences in your user account.

Time Position Orientation Groundspeed Altitude Reporting Facility
EDT Latitude Longitude Course Direction KTS MPH feet Rate Location/Type
09:42AM 39.8667 -75.2833 270° West 164 189 600  Level Philadelphia TRACON
09:43AM 39.8500 -75.3667 255° West 201 231 3,600 1,980 Climbing Philadelphia TRACON
09:44AM 39.9037 -75.6017 285° West  Level FlightAware Approximate
09:44AM 39.8333 -75.4333 252° West 241 277 4,800  Level Philadelphia TRACON
09:45AM 39.9067 -75.7269 258° West  Level FlightAware Approximate
09:45AM 39.8667 -75.5167 298° West 271 312 7,500  Level Philadelphia TRACON
09:46AM 39.9001 -75.8547 270° West  Level FlightAware Approximate
09:46AM 39.8881 -75.5892 291° West 282 325 8,900  Level New York Center
09:47AM 39.9000 -75.9834 270° West  Level FlightAware Approximate
09:47AM 39.9150 -75.6939 289° West 291 335 10,000  Level New York Center
09:48AM 39.9206 -75.8081 274° West 304 350 11,600 1,500 Climbing New York Center
09:49AM 39.9300 -75.9253 276° West 325 374 13,100 1,320 Climbing New York Center
09:50AM 39.9372 -76.0475 274° West 336 387 14,300 1,140 Climbing New York Center
09:51AM 39.9442 -76.1700 274° West 342 394 15,400 1,080 Climbing New York Center
09:52AM 39.9494 -76.2814 274° West 348 400 16,500 1,380 Climbing New York Center
09:53AM 39.9458 -76.4003 268° West 348 400 18,200 1,560 Climbing New York Center
09:54AM 39.9342 -76.5103 262° West 329 379 19,700 1,260 Climbing New York Center
09:55AM 39.9392 -76.6244 273° West 322 371 20,700 1,020 Climbing New York Center
09:56AM 39.9456 -76.7442 274° West 322 371 21,700 960 Climbing New York Center
09:57AM 39.9561 -76.8617 277° West 329 379 22,700 1,080 Climbing New York Center
09:58AM 39.9614 -77.0003 273° West 352 405 23,900 1,080 Climbing New York Center
09:59AM 39.9692 -77.1283 275° West 352 405 24,900 960 Climbing New York Center
10:00AM 39.9772 -77.2483 275° West 352 405 25,900 960 Climbing New York Center
10:01AM 39.9850 -77.3736 275° West 352 405 26,900 960 Climbing New York Center
10:03AM 39.9989 -77.6044 275° West 345 397 28,700 960 Climbing Cleveland Center
10:04AM 40.0042 -77.7264 273° West 339 390 29,700 900 Climbing Cleveland Center
10:05AM 40.0111 -77.8425 275° West 334 384 30,500 720 Climbing Cleveland Center
10:06AM 40.0183 -77.9644 274° West 334 384 31,200 660 Climbing Cleveland Center
10:07AM 40.0228 -78.0725 273° West 334 384 31,900 360 Climbing Cleveland Center
10:08AM 40.0275 -78.1944 273° West 334 384 32,000  Climbing Cleveland Center
10:09AM 40.0303 -78.3353 272° West 340 391 32,000  Level Cleveland Center
10:10AM 40.0372 -78.4733 274° West 359 413 32,000  Level Cleveland Center
10:11AM 40.0439 -78.6142 274° West 384 442 32,000  Level Cleveland Center
10:12AM 40.0506 -78.7578 274° West 396 456 32,000 60 Level Cleveland Center
10:13AM 40.0569 -78.9069 273° West 407 468 32,200 360 Climbing Cleveland Center
10:14AM 40.0631 -79.0506 273° West 407 468 32,800 360 Climbing Cleveland Center
10:15AM 40.0692 -79.1942 273° West 401 461 33,000 60 Climbing Cleveland Center
10:16AM 40.0769 -79.3378 274° West 401 461 33,000  Level Cleveland Center
10:17AM 40.0828 -79.4842 273° West 406 467 33,000  Level Cleveland Center
10:18AM 40.0883 -79.6333 273° West 406 467 33,000 240 Level Cleveland Center
10:19AM 40.0936 -79.7825 273° West 406 467 33,500 480 Climbing Cleveland Center
10:20AM 40.0986 -79.9236 273° West 401 461 34,000 240 Climbing Cleveland Center
10:21AM 40.0994 -80.0703 270° West 401 461 34,000  Level Cleveland Center
10:22AM 40.1000 -80.2167 270° West 409 471 34,000  Level Cleveland Center
10:23AM 40.1106 -80.3442 276° West 409 471 34,000  Level Cleveland Center
10:24AM 40.1150 -80.4961 272° West 409 471 34,000  Level Cleveland Center
10:26AM 40.1211 -80.7942 272° West 415 478 34,000  Level Indianapolis Center
10:27AM 40.1247 -80.9431 272° West 408 470 34,000  Level Indianapolis Center
10:28AM 40.1272 -81.0922 271° West 407 468 34,000  Level Indianapolis Center
10:29AM 40.1308 -81.2383 272° West 401 461 34,000 -420 Level Indianapolis Center
10:30AM 40.1336 -81.3850 271° West 400 460 33,200 -2,400 Descending Indianapolis Center
10:31AM 40.1364 -81.5408 271° West 423 487 29,100 -2,580 Descending Indianapolis Center
10:32AM 40.1397 -81.6969 272° West 426 490 28,000 -660 Descending Indianapolis Center
10:33AM 40.1422 -81.8569 271° West 398 458 27,800 -600 Descending Indianapolis Center
10:34AM 40.1447 -81.9994 271° West 391 450 26,800 -1,020 Descending Indianapolis Center
10:35AM 40.1469 -82.1439 271° West 394 453 25,800 -1,020 Descending Indianapolis Center
10:36AM 40.1489 -82.2894 271° West 397 457 24,800 -900 Descending Indianapolis Center
10:37AM 40.1500 -82.4364 271° West 402 463 24,000 -960 Descending Indianapolis Center
10:38AM 40.1511 -82.5833 271° West 401 461 22,900 -1,320 Descending Indianapolis Center
10:39AM 40.1586 -82.7269 274° West 395 455 21,400 -1,500 Descending Indianapolis Center
10:40AM 40.1661 -82.8592 274° West 368 423 19,900 -1,500 Descending Indianapolis Center
10:41AM 40.1728 -82.9928 274° West 365 420 18,400 -1,620 Descending Indianapolis Center
10:42AM 40.1797 -83.1272 274° West 370 426 16,600 -1,860 Descending Indianapolis Center
10:43AM 40.1872 -83.2808 274° West 361 415 14,600 -1,740 Descending Indianapolis Center
10:44AM 40.1931 -83.4064 274° West 348 400 13,100 -1,500 Descending Indianapolis Center
10:45AM 40.1867 -83.5208 266° West 314 361 11,600 -1,500 Descending Indianapolis Center
10:46AM 40.1703 -83.6244 258° West 290 334 10,100 -1,500 Descending Indianapolis Center
10:47AM 40.1528 -83.7161 256° West 265 305 8,600 -1,500 Descending Indianapolis Center
10:48AM 40.1153 -83.7989 239° Southwest 264 304 7,100 -1,560 Descending Indianapolis Center
10:49AM 40.0706 -83.8842 236° Southwest 277 319 5,500 -1,560 Descending Indianapolis Center
10:50AM 40.0264 -83.9636 234° Southwest 276 318 4,000 -1,320 Descending Indianapolis Center
10:51AM 39.9869 -84.0400 236° Southwest 265 305 2,900 -1,140 Descending Indianapolis Center